Time;durP1;ratioP1;P1;durP2;ratioP2;P2;SDS_P1;SDS_P2;PMS_P1;PMS_P2;Temp;Humidity;BMP_temperature;BMP_pressure;BME280_temperature;BME280_humidity;BME280_pressure;Samples;Min_cycle;Max_cycle;Signal;HPM_P1;HPM_P2
2022/10/27 00:00:50;;;;;;;8.80;6.57;;;;;;;17.11;50.43;100594.09;4000324;29;20234;-35
2022/10/27 00:02:52;;;;;;;13.77;7.33;;;;;;;16.52;52.88;100584.88;4003385;29;20260;-36
2022/10/27 00:04:53;;;;;;;14.77;9.33;;;;;;;16.85;53.42;100561.63;3999320;29;20723;-36
2022/10/27 00:06:55;;;;;;;16.40;9.93;;;;;;;18.19;51.32;100481.78;3998714;29;20242;-36
2022/10/27 00:08:57;;;;;;;16.00;9.03;;;;;;;19.33;48.64;100443.69;4000080;29;20260;-35
2022/10/27 00:11:03;;;;;;;12.20;8.27;;;;;;;19.74;47.06;100449.47;3998178;29;20271;-38
2022/10/27 00:13:05;;;;;;;16.00;7.80;;;;;;;19.52;47.50;100478.94;3998974;29;20653;-35
2022/10/27 00:15:08;;;;;;;14.13;7.10;;;;;;;19.34;47.39;100498.75;4000403;29;20816;-36
2022/10/27 00:17:10;;;;;;;16.43;7.40;;;;;;;19.13;47.92;100525.28;4011311;29;20336;-36
2022/10/27 00:19:11;;;;;;;13.80;6.53;;;;;;;19.31;47.35;100500.03;4024230;29;20873;-36
2022/10/27 00:21:16;;;;;;;11.70;6.70;;;;;;;20.01;45.64;100468.91;4003231;29;20240;-36
2022/10/27 00:23:18;;;;;;;14.33;7.10;;;;;;;19.13;47.54;100536.13;4006452;29;20337;-38
2022/10/27 00:25:19;;;;;;;10.30;6.57;;;;;;;17.23;51.37;100591.59;3996355;29;20726;-35
2022/10/27 00:27:21;;;;;;;13.63;7.13;;;;;;;19.24;48.23;100477.56;4004486;29;20558;-35
2022/10/27 00:29:23;;;;;;;10.37;6.70;;;;;;;19.13;47.61;100498.16;4004022;29;20759;-36
2022/10/27 00:31:25;;;;;;;11.37;6.00;;;;;;;18.48;49.71;100543.72;4015965;29;20240;-36
2022/10/27 00:33:27;;;;;;;10.23;6.40;;;;;;;18.09;51.22;100552.66;4014283;29;20272;-35
2022/10/27 00:35:29;;;;;;;12.83;6.07;;;;;;;19.14;49.89;100461.81;4046927;28;22465;-36
2022/10/27 00:37:30;;;;;;;10.53;5.87;;;;;;;19.72;47.93;100448.84;4047190;29;20215;-36
2022/10/27 00:39:32;;;;;;;10.33;4.87;;;;;;;19.28;48.38;100486.09;4081517;29;20219;-36
2022/10/27 00:41:39;;;;;;;12.07;6.37;;;;;;;18.77;50.11;100504.28;4050510;28;20462;-36
2022/10/27 00:43:40;;;;;;;14.60;6.70;;;;;;;19.21;49.85;100464.47;4040476;29;20323;-36
2022/10/27 00:45:42;;;;;;;10.73;6.70;;;;;;;19.02;49.08;100491.56;4037309;29;20255;-36
2022/10/27 00:47:44;;;;;;;12.90;8.33;;;;;;;16.36;55.18;100553.66;4047425;29;20502;-35
2022/10/27 00:49:49;;;;;;;18.33;9.80;;;;;;;17.13;54.80;100510.91;4050187;29;20231;-36
2022/10/27 00:52:01;;;;;;;13.40;8.70;;;;;;;17.15;52.55;100526.91;4047179;28;20328;-38
2022/10/27 00:54:03;;;;;;;14.50;9.77;;;;;;;16.55;53.83;100529.59;4049371;28;20729;-37
2022/10/27 00:56:04;;;;;;;14.20;9.10;;;;;;;16.77;53.18;100517.56;4042524;28;20267;-36
2022/10/27 00:58:15;;;;;;;12.43;9.13;;;;;;;17.08;52.85;100501.75;4043242;28;20252;-36
2022/10/27 01:00:17;;;;;;;13.27;7.73;;;;;;;15.79;54.19;100531.44;4036883;28;20322;-36
2022/10/27 01:02:19;;;;;;;12.63;6.90;;;;;;;14.82;55.87;100524.16;4074355;29;20322;-36
2022/10/27 01:04:31;;;;;;;11.53;7.33;;;;;;;15.22;56.16;100516.34;4048456;29;20854;-38
2022/10/27 01:06:34;;;;;;;13.63;7.47;;;;;;;15.40;55.01;100505.88;4052951;28;20620;-36
2022/10/27 01:08:37;;;;;;;9.30;5.87;;;;;;;15.68;54.27;100491.53;4046438;29;20258;-36
2022/10/27 01:10:39;;;;;;;9.70;6.40;;;;;;;16.34;53.27;100471.19;4050517;28;20736;-36
2022/10/27 01:12:42;;;;;;;11.73;6.23;;;;;;;16.05;53.35;100498.31;4037260;29;20239;-36
2022/10/27 01:14:44;;;;;;;10.80;6.40;;;;;;;15.90;53.68;100507.63;4044185;29;20731;-36
2022/10/27 01:17:10;;;;;;;8.97;5.53;;;;;;;15.25;54.43;100522.22;4042024;28;20282;-36
2022/10/27 01:19:42;;;;;;;10.13;5.73;;;;;;;15.35;53.76;100523.69;4048913;28;20334;-35
2022/10/27 01:22:05;;;;;;;10.20;5.80;;;;;;;14.98;54.34;100531.13;4047525;28;20509;-36
2022/10/27 01:24:54;;;;;;;8.67;5.60;;;;;;;15.15;54.87;100519.03;4055199;28;20223;-35
2022/10/27 01:27:02;;;;;;;10.17;5.23;;;;;;;17.58;51.02;100441.66;4049961;29;20310;-36
2022/10/27 01:29:30;;;;;;;10.00;5.63;;;;;;;18.28;48.74;100464.22;4043131;29;20600;-36
2022/10/27 01:32:00;;;;;;;9.30;4.90;;;;;;;16.88;50.95;100561.22;4083769;28;20231;-36
2022/10/27 01:34:08;;;;;;;9.83;4.87;;;;;;;17.93;48.40;100501.69;4056948;28;20230;-35
2022/10/27 01:36:14;;;;;;;8.57;4.83;;;;;;;18.52;47.25;100483.44;4088932;28;20227;-36
2022/10/27 01:38:33;;;;;;;6.27;4.10;;;;;;;17.53;48.58;100555.97;4119939;28;20692;-36
2022/10/27 01:40:43;;;;;;;9.13;4.40;;;;;;;17.67;49.06;100517.03;4095029;28;20251;-36
2022/10/27 01:42:59;;;;;;;6.23;4.33;;;;;;;18.28;47.35;100501.28;4079823;28;20230;-36
2022/10/27 01:45:02;;;;;;;9.37;4.50;;;;;;;17.13;48.55;100567.69;4092678;28;20710;-36
2022/10/27 01:47:05;;;;;;;8.73;4.97;;;;;;;16.78;50.55;100573.25;4089145;28;20234;-36
2022/10/27 01:49:08;;;;;;;10.97;5.00;;;;;;;17.18;49.58;100554.34;4101745;28;20325;-38
2022/10/27 01:51:10;;;;;;;8.83;4.97;;;;;;;15.36;52.67;100580.13;4073535;28;20344;-35
2022/10/27 01:53:13;;;;;;;8.73;5.17;;;;;;;14.30;54.18;100564.66;4102116;28;20303;-35
2022/10/27 01:55:35;;;;;;;11.33;5.10;;;;;;;14.29;54.92;100568.38;4093445;28;20725;-36
2022/10/27 01:57:47;;;;;;;8.03;5.00;;;;;;;14.55;54.57;100550.81;4086007;28;20867;-36
2022/10/27 02:00:01;;;;;;;9.60;5.27;;;;;;;14.80;54.96;100527.03;4093204;28;20465;-35
2022/10/27 02:02:12;;;;;;;8.43;5.43;;;;;;;14.30;55.69;100543.09;4097763;28;20316;-35
2022/10/27 02:04:44;;;;;;;9.27;5.80;;;;;;;15.02;53.98;100505.47;4094149;28;20736;-35
2022/10/27 02:07:23;;;;;;;7.47;4.90;;;;;;;15.44;53.15;100493.69;4092960;28;20239;-38
2022/10/27 02:09:53;;;;;;;9.03;4.97;;;;;;;14.34;54.93;100546.25;4086513;28;20222;-36
2022/10/27 02:11:58;;;;;;;7.20;4.63;;;;;;;14.84;53.56;100516.72;4093460;28;20641;-35
2022/10/27 02:14:00;;;;;;;9.37;5.07;;;;;;;15.81;51.68;100488.91;4093951;28;20749;-35
2022/10/27 02:16:08;;;;;;;12.03;4.83;;;;;;;15.32;52.36;100533.03;4094125;28;20242;-36
2022/10/27 02:18:21;;;;;;;9.37;4.80;;;;;;;16.33;50.43;100494.66;4092672;28;20846;-35
2022/10/27 02:20:27;;;;;;;6.13;4.70;;;;;;;15.80;49.83;100560.06;4093721;28;20288;-36
2022/10/27 02:22:31;;;;;;;7.13;4.50;;;;;;;16.74;48.95;100485.53;4096660;28;20746;-36
2022/10/27 02:24:33;;;;;;;9.03;4.13;;;;;;;17.07;48.19;100519.84;4079785;28;20301;-36
2022/10/27 02:26:50;;;;;;;7.60;3.53;;;;;;;17.09;48.15;100525.03;4078114;28;20248;-36
2022/10/27 02:29:00;;;;;;;6.63;4.87;;;;;;;17.34;47.47;100519.78;4094785;28;20267;-38
2022/10/27 02:31:04;;;;;;;6.70;3.57;;;;;;;17.42;47.86;100529.56;4091368;28;20245;-36
2022/10/27 02:33:07;;;;;;;5.30;3.67;;;;;;;15.70;50.33;100605.47;4076547;28;20325;-36
2022/10/27 02:35:10;;;;;;;6.80;4.30;;;;;;;15.87;50.15;100579.00;4083587;28;20346;-36
2022/10/27 02:37:24;;;;;;;6.73;3.83;;;;;;;14.59;52.59;100590.66;4108741;28;20716;-36
2022/10/27 02:39:26;;;;;;;7.73;4.57;;;;;;;13.95;54.64;100583.25;4106499;28;20241;-37
2022/10/27 02:41:27;;;;;;;8.33;5.10;;;;;;;13.47;55.64;100570.19;4108967;28;20245;-35
2022/10/27 02:43:29;;;;;;;8.73;5.57;;;;;;;13.08;56.40;100556.94;4083796;28;20606;-35
2022/10/27 02:45:30;;;;;;;7.90;5.03;;;;;;;12.57;57.40;100554.84;4079148;28;20674;-36
2022/10/27 02:47:32;;;;;;;6.87;4.80;;;;;;;12.39;57.89;100544.38;4082562;28;20281;-36
2022/10/27 02:49:34;;;;;;;7.17;4.87;;;;;;;12.84;57.56;100536.50;4081530;28;20333;-35
2022/10/27 02:51:36;;;;;;;8.13;5.33;;;;;;;13.05;56.80;100522.38;4077657;28;20765;-37
2022/10/27 02:53:37;;;;;;;8.67;4.67;;;;;;;12.44;57.73;100539.31;4077541;28;20226;-35
2022/10/27 02:55:39;;;;;;;12.07;5.03;;;;;;;12.13;58.65;100540.16;4088897;28;20706;-35
2022/10/27 02:57:40;;;;;;;7.20;5.13;;;;;;;12.18;58.90;100526.19;4110797;28;20209;-35
2022/10/27 02:59:42;;;;;;;11.60;5.17;;;;;;;12.38;57.89;100518.53;4089496;28;20915;-36
2022/10/27 03:01:45;;;;;;;8.20;5.30;;;;;;;12.36;57.86;100507.97;4086211;28;20301;-35
2022/10/27 03:03:47;;;;;;;8.70;5.70;;;;;;;12.77;57.85;100489.91;4086956;28;20284;-35
2022/10/27 03:05:48;;;;;;;9.23;4.73;;;;;;;12.57;57.24;100500.31;4076773;28;20265;-35
2022/10/27 03:07:50;;;;;;;11.57;5.33;;;;;;;13.78;55.46;100456.19;4082967;28;20333;-37
2022/10/27 03:09:52;;;;;;;10.60;5.40;;;;;;;13.08;55.92;100506.72;4069927;28;20587;-35
2022/10/27 03:11:53;;;;;;;6.93;4.87;;;;;;;14.74;53.29;100461.25;4070161;28;20246;-35
2022/10/27 03:13:55;;;;;;;10.33;5.10;;;;;;;14.90;52.13;100524.03;4075862;28;20902;-36
2022/10/27 03:15:57;;;;;;;10.73;5.33;;;;;;;14.39;53.05;100535.75;4075862;28;20636;-36
2022/10/27 03:17:58;;;;;;;10.60;5.03;;;;;;;15.51;50.88;100507.19;4100079;28;20493;-36
2022/10/27 03:20:00;;;;;;;10.67;5.10;;;;;;;15.48;50.71;100519.22;4083785;28;20372;-36
2022/10/27 03:22:02;;;;;;;9.67;5.30;;;;;;;16.79;48.67;100493.84;4077780;28;20711;-36
2022/10/27 03:24:04;;;;;;;12.33;4.73;;;;;;;16.66;48.60;100517.34;4070074;28;20507;-36
2022/10/27 03:26:06;;;;;;;6.87;4.30;;;;;;;15.51;49.18;100596.22;4074715;28;20451;-36
2022/10/27 03:28:08;;;;;;;8.20;4.47;;;;;;;13.64;53.74;100600.41;4084138;28;20321;-36
2022/10/27 03:30:15;;;;;;;7.30;4.57;;;;;;;13.62;53.94;100609.72;4085720;28;20673;-36
2022/10/27 03:32:16;;;;;;;11.50;5.17;;;;;;;14.14;53.18;100575.66;4093847;28;20272;-36
2022/10/27 03:34:18;;;;;;;9.80;4.90;;;;;;;14.72;52.21;100540.63;4097900;28;20663;-36
2022/10/27 03:36:21;;;;;;;9.03;4.57;;;;;;;15.23;51.03;100523.41;4095055;28;20315;-36
2022/10/27 03:38:23;;;;;;;11.00;5.00;;;;;;;14.51;52.28;100576.44;4127625;28;20614;-36
2022/10/27 03:40:26;;;;;;;10.07;5.37;;;;;;;15.31;51.54;100523.28;4103058;28;20228;-36
2022/10/27 03:42:28;;;;;;;12.03;4.93;;;;;;;15.79;51.06;100499.06;4096747;28;20245;-36
2022/10/27 03:44:29;;;;;;;8.77;5.10;;;;;;;15.36;51.41;100528.91;4096896;28;20253;-37
2022/10/27 03:46:31;;;;;;;8.70;4.73;;;;;;;13.94;53.25;100602.28;4107015;28;20238;-36
2022/10/27 03:48:32;;;;;;;7.93;5.10;;;;;;;13.59;54.31;100604.69;4106886;28;20230;-36
2022/10/27 03:50:34;;;;;;;7.43;5.33;;;;;;;13.60;54.76;100595.63;4099673;28;20337;-39
2022/10/27 03:52:36;;;;;;;8.53;4.90;;;;;;;15.30;51.12;100516.19;4103573;28;20245;-35
2022/10/27 03:54:37;;;;;;;11.10;5.33;;;;;;;15.83;49.46;100527.31;4101378;28;20677;-36
2022/10/27 03:56:39;;;;;;;8.67;5.17;;;;;;;14.91;50.52;100603.81;4098602;28;20435;-36
2022/10/27 03:58:41;;;;;;;7.87;4.93;;;;;;;15.32;49.73;100562.69;4103962;28;20236;-36
2022/10/27 04:00:43;;;;;;;8.30;4.70;;;;;;;15.44;49.69;100563.81;4129128;28;20255;-36
2022/10/27 04:02:45;;;;;;;8.57;4.70;;;;;;;15.69;49.14;100563.38;4103564;28;20226;-38
2022/10/27 04:04:47;;;;;;;6.90;4.60;;;;;;;14.49;51.16;100618.91;4096556;28;20670;-36
2022/10/27 04:06:48;;;;;;;6.23;4.30;;;;;;;15.54;50.04;100551.81;4094723;28;20333;-36
2022/10/27 04:08:50;;;;;;;11.00;4.90;;;;;;;15.06;50.83;100583.00;4099948;28;20236;-36
2022/10/27 04:10:52;;;;;;;10.30;4.87;;;;;;;15.70;49.47;100549.66;4111005;28;20307;-36
2022/10/27 04:12:55;;;;;;;6.30;4.40;;;;;;;16.44;48.18;100529.16;4105842;28;20320;-36
2022/10/27 04:14:57;;;;;;;7.37;5.30;;;;;;;15.16;49.52;100606.13;4110270;28;20268;-36
2022/10/27 04:16:59;;;;;;;7.67;5.30;;;;;;;15.01;50.33;100596.25;4111133;28;20498;-38
2022/10/27 04:19:00;;;;;;;12.83;5.13;;;;;;;15.79;49.01;100562.97;4104718;28;20313;-35
2022/10/27 04:21:04;;;;;;;9.10;4.80;;;;;;;16.59;47.91;100538.97;4123658;28;20252;-35
2022/10/27 04:23:05;;;;;;;7.60;5.03;;;;;;;15.08;50.04;100613.31;4093673;28;20604;-38
2022/10/27 04:25:07;;;;;;;6.10;4.67;;;;;;;14.77;51.41;100614.44;4104663;28;20257;-37
2022/10/27 04:27:09;;;;;;;7.20;5.30;;;;;;;14.28;52.63;100606.25;4098970;28;20229;-37
2022/10/27 04:29:10;;;;;;;7.60;5.07;;;;;;;16.04;49.86;100512.00;4101166;28;20321;-36
2022/10/27 04:31:12;;;;;;;8.27;4.83;;;;;;;16.78;47.89;100518.38;4100403;28;20225;-36
2022/10/27 04:33:14;;;;;;;6.03;4.63;;;;;;;16.71;47.81;100528.38;4097551;28;20244;-35
2022/10/27 04:35:16;;;;;;;7.97;4.93;;;;;;;16.95;47.59;100529.63;4097642;28;20726;-35
2022/10/27 04:37:17;;;;;;;8.50;5.40;;;;;;;16.76;47.26;100536.69;4095710;28;20317;-35
2022/10/27 04:39:19;;;;;;;8.90;4.97;;;;;;;15.33;48.76;100613.72;4104099;28;20340;-36
2022/10/27 04:41:21;;;;;;;9.83;5.70;;;;;;;16.71;47.33;100536.47;4134357;28;20230;-37
2022/10/27 04:43:22;;;;;;;8.87;5.20;;;;;;;15.39;48.28;100622.91;4092418;28;20610;-35
2022/10/27 04:45:24;;;;;;;13.33;6.50;;;;;;;14.03;51.51;100628.88;4114326;28;20506;-35
2022/10/27 04:47:26;;;;;;;10.27;6.77;;;;;;;13.13;52.61;100615.50;4104514;28;20225;-36
2022/10/27 04:49:27;;;;;;;31.30;7.20;;;;;;;13.35;53.93;100624.59;4104166;28;20529;-35
2022/10/27 04:51:29;;;;;;;43.03;7.27;;;;;;;13.80;53.46;100596.72;4098597;28;20654;-35
2022/10/27 04:53:31;;;;;;;46.77;7.37;;;;;;;13.15;55.28;100616.19;4088938;28;20635;-36
2022/10/27 04:55:32;;;;;;;26.17;6.97;;;;;;;13.27;55.23;100594.03;4098262;28;20244;-36
2022/10/27 04:57:34;;;;;;;23.07;7.23;;;;;;;14.67;53.34;100524.22;4107234;28;20217;-38
2022/10/27 05:02:12;;;;;;;21.27;6.83;;;;;;;10.89;63.03;100459.31;4098097;28;20871;-68
2022/10/27 05:04:14;;;;;;;26.30;6.83;;;;;;;10.86;62.01;100474.91;4074184;28;20234;-68
2022/10/27 05:06:16;;;;;;;28.43;6.70;;;;;;;10.81;62.00;100475.41;4071569;28;20231;-67
2022/10/27 05:08:17;;;;;;;24.47;6.50;;;;;;;11.22;61.26;100455.72;4110410;28;20230;-69
2022/10/27 05:10:19;;;;;;;27.43;7.20;;;;;;;11.33;61.61;100439.28;4086038;28;20736;-68
2022/10/27 05:12:21;;;;;;;24.63;7.27;;;;;;;11.85;59.83;100440.59;4076385;28;20234;-68
2022/10/27 05:14:22;;;;;;;17.47;6.90;;;;;;;12.22;58.55;100457.78;4079020;28;20234;-66
2022/10/27 05:16:24;;;;;;;49.97;7.63;;;;;;;11.32;60.83;100490.38;4084055;28;20235;-66
2022/10/27 05:18:26;;;;;;;69.73;8.87;;;;;;;11.70;59.58;100461.94;4111548;28;20865;-68
2022/10/27 05:20:27;;;;;;;58.93;8.40;;;;;;;12.39;58.29;100437.00;4141696;28;20567;-68
2022/10/27 05:22:29;;;;;;;89.40;9.40;;;;;;;12.24;57.88;100450.38;4144991;28;20276;-68
2022/10/27 05:24:31;;;;;;;51.53;8.23;;;;;;;13.74;55.48;100432.56;4134445;28;20810;-68
2022/10/27 05:26:33;;;;;;;20.73;7.50;;;;;;;12.79;55.13;100550.50;4093146;28;20310;-68
2022/10/27 05:28:42;;;;;;;52.53;8.27;;;;;;;11.38;59.03;100540.59;4100055;28;20245;-68
2022/10/27 05:30:44;;;;;;;64.80;8.20;;;;;;;11.65;58.45;100530.50;4136603;23;20252;-36
2022/10/27 05:32:46;;;;;;;42.53;7.77;;;;;;;12.30;57.31;100494.44;4129482;28;20726;-36
2022/10/27 05:34:48;;;;;;;43.17;6.53;;;;;;;12.18;56.89;100516.31;4149657;28;20231;-35
2022/10/27 05:36:50;;;;;;;38.87;6.43;;;;;;;12.45;56.53;100502.53;4147235;28;20641;-36
2022/10/27 05:38:51;;;;;;;22.23;5.77;;;;;;;13.09;55.57;100469.94;4147927;28;20322;-36
2022/10/27 05:40:57;;;;;;;7.10;4.90;;;;;;;14.89;51.92;100463.06;4144190;28;20240;-39
2022/10/27 05:43:00;;;;;;;7.10;5.07;;;;;;;14.95;51.12;100476.59;4143757;28;20527;-36
2022/10/27 05:45:02;;;;;;;5.43;4.93;;;;;;;14.95;50.92;100492.75;4133392;28;20334;-37
2022/10/27 05:47:04;;;;;;;8.30;4.40;;;;;;;14.89;51.11;100503.50;4141237;28;20231;-34
2022/10/27 05:49:05;;;;;;;6.53;4.80;;;;;;;14.81;50.72;100522.47;4151541;28;20235;-35
2022/10/27 05:51:07;;;;;;;9.67;6.53;;;;;;;13.07;53.55;100599.09;4161691;28;20240;-37
2022/10/27 05:53:09;;;;;;;12.07;6.20;;;;;;;12.64;55.25;100603.31;4171275;28;20231;-39
2022/10/27 05:55:10;;;;;;;12.07;5.20;;;;;;;12.97;54.25;100573.50;4150629;28;20258;-39
2022/10/27 05:57:12;;;;;;;12.67;5.40;;;;;;;13.87;53.76;100516.09;4148116;28;20910;-36
2022/10/27 05:59:13;;;;;;;7.13;5.10;;;;;;;14.84;50.93;100527.50;4137910;28;20242;-34
2022/10/27 06:01:15;;;;;;;6.80;5.20;;;;;;;14.29;51.68;100580.97;4145310;28;20297;-35
2022/10/27 06:03:22;;;;;;;9.20;5.87;;;;;;;14.34;50.92;100560.56;4142677;28;20318;-37
2022/10/27 06:05:25;;;;;;;12.27;8.00;;;;;;;14.70;50.55;100545.38;4142507;28;20334;-37
2022/10/27 06:07:26;;;;;;;12.50;8.23;;;;;;;15.04;50.23;100543.81;4147965;28;20243;-36
2022/10/27 06:09:28;;;;;;;10.43;7.20;;;;;;;15.41;49.74;100539.94;4148875;28;20423;-39
2022/10/27 06:11:29;;;;;;;11.77;7.30;;;;;;;15.13;50.13;100559.66;4174135;28;20328;-39
2022/10/27 06:13:31;;;;;;;16.30;7.80;;;;;;;15.65;49.01;100551.28;4137504;28;20231;-36
2022/10/27 06:15:33;;;;;;;10.43;7.33;;;;;;;13.89;51.98;100640.50;4156518;28;20330;-38
2022/10/27 06:17:35;;;;;;;15.90;7.90;;;;;;;13.38;52.61;100654.63;4140837;28;20619;-38
2022/10/27 06:19:37;;;;;;;15.27;8.20;;;;;;;13.48;53.07;100640.94;4147879;28;20243;-37
2022/10/27 06:21:38;;;;;;;13.07;7.80;;;;;;;13.01;53.95;100647.34;4142368;28;20232;-37
2022/10/27 06:23:40;;;;;;;23.63;8.57;;;;;;;13.72;53.29;100604.06;4143153;28;20374;-37
2022/10/27 06:25:42;;;;;;;26.37;8.87;;;;;;;13.08;53.91;100630.31;4142061;28;20342;-37
2022/10/27 06:27:44;;;;;;;34.13;8.67;;;;;;;12.78;54.73;100652.72;4141357;28;20208;-39
2022/10/27 06:29:45;;;;;;;18.93;8.87;;;;;;;13.10;54.46;100630.97;4176832;28;20242;-37
2022/10/27 06:31:47;;;;;;;12.13;8.10;;;;;;;13.10;53.81;100624.78;4140677;28;20235;-38
2022/10/27 06:33:49;;;;;;;17.23;8.20;;;;;;;13.60;53.52;100598.31;4147305;28;20701;-36
2022/10/27 06:35:50;;;;;;;13.30;7.40;;;;;;;15.44;50.24;100565.69;4146772;28;20242;-38
2022/10/27 06:37:52;;;;;;;16.73;8.20;;;;;;;14.18;51.85;100644.22;4134708;28;20435;-36
2022/10/27 06:39:54;;;;;;;19.43;8.60;;;;;;;13.86;52.88;100643.56;4146572;28;20625;-36
2022/10/27 06:41:56;;;;;;;23.77;8.93;;;;;;;14.47;52.01;100599.41;4151353;28;20245;-37
2022/10/27 06:43:58;;;;;;;14.17;7.87;;;;;;;15.10;50.33;100594.22;4144870;28;20619;-36
2022/10/27 06:45:59;;;;;;;11.60;7.50;;;;;;;14.35;51.61;100642.16;4137911;28;20493;-38
2022/10/27 06:48:03;;;;;;;27.87;7.53;;;;;;;13.27;53.91;100671.16;4174956;28;20234;-38
2022/10/27 06:50:06;;;;;;;30.63;8.47;;;;;;;12.93;55.58;100672.44;4140242;28;20311;-37
2022/10/27 06:52:07;;;;;;;44.17;7.97;;;;;;;12.86;56.77;100658.88;4142011;28;20227;-38
2022/10/27 06:54:09;;;;;;;21.70;7.40;;;;;;;14.92;52.51;100559.69;4141728;28;20260;-35
2022/10/27 06:56:11;;;;;;;17.47;7.40;;;;;;;15.57;51.06;100571.19;4154549;28;20231;-38
2022/10/27 06:58:12;;;;;;;17.67;5.80;;;;;;;15.12;51.81;100595.72;4150043;28;20223;-37
2022/10/27 07:00:14;;;;;;;37.17;6.77;;;;;;;15.09;51.61;100598.81;4151719;28;20231;-38
2022/10/27 07:02:16;;;;;;;57.80;6.77;;;;;;;12.98;55.15;100677.28;4143081;28;20231;-37
2022/10/27 07:04:18;;;;;;;49.23;6.93;;;;;;;12.47;57.04;100686.63;4139007;28;20232;-38
2022/10/27 07:06:20;;;;;;;41.27;6.20;;;;;;;12.35;57.58;100672.72;4129415;28;20323;-36
2022/10/27 07:08:21;;;;;;;44.90;6.47;;;;;;;13.55;55.37;100619.50;4163051;28;20235;-35
2022/10/27 07:10:23;;;;;;;38.20;5.83;;;;;;;13.13;56.06;100655.81;4152172;28;20230;-35
2022/10/27 07:12:25;;;;;;;27.70;6.60;;;;;;;14.33;53.37;100595.75;4153264;28;20242;-35
2022/10/27 07:14:27;;;;;;;27.93;5.37;;;;;;;14.53;53.07;100591.41;4154410;28;20270;-38
2022/10/27 07:16:28;;;;;;;27.00;5.73;;;;;;;14.69;53.09;100592.19;4147228;28;20243;-37
2022/10/27 07:18:37;;;;;;;33.30;5.40;;;;;;;15.47;51.33;100586.84;4146071;28;20232;-37
2022/10/27 07:20:39;;;;;;;24.87;5.53;;;;;;;14.40;52.66;100642.44;4143516;28;20244;-37
2022/10/27 07:22:41;;;;;;;28.17;4.93;;;;;;;13.04;55.02;100695.34;4152919;28;20331;-38
2022/10/27 07:24:42;;;;;;;16.80;5.03;;;;;;;14.70;52.79;100621.63;4143564;28;20232;-36
2022/10/27 07:26:44;;;;;;;16.67;4.77;;;;;;;14.06;53.60;100662.69;4133703;28;20228;-35
2022/10/27 07:28:46;;;;;;;17.17;4.90;;;;;;;14.97;52.58;100608.44;4179539;28;20249;-38
2022/10/27 07:30:47;;;;;;;10.23;5.90;;;;;;;14.72;52.72;100643.81;4142180;28;20246;-38
2022/10/27 07:32:49;;;;;;;13.13;5.30;;;;;;;15.05;52.28;100627.19;4140990;28;20255;-38
2022/10/27 07:34:50;;;;;;;7.33;4.80;;;;;;;15.69;51.22;100628.13;4127234;28;20232;-38
2022/10/27 07:36:52;;;;;;;11.20;4.97;;;;;;;16.23;49.85;100624.66;4142089;28;20297;-36
2022/10/27 07:38:54;;;;;;;11.90;4.50;;;;;;;15.81;50.15;100640.00;4141017;28;20280;-36
2022/10/27 07:40:56;;;;;;;9.77;4.80;;;;;;;15.94;50.04;100638.41;4154357;28;20728;-36
2022/10/27 07:42:58;;;;;;;8.23;4.70;;;;;;;15.66;50.10;100652.78;4149658;28;20355;-37
2022/10/27 07:45:09;;;;;;;10.97;4.50;;;;;;;15.24;51.58;100681.47;4127896;28;20279;-38
2022/10/27 07:47:10;;;;;;;21.37;6.90;;;;;;;14.67;52.43;100707.38;4142733;28;20228;-36
2022/10/27 07:49:12;;;;;;;8.70;6.27;;;;;;;15.67;51.63;100641.81;4173328;28;20224;-37
2022/10/27 07:51:14;;;;;;;10.40;5.73;;;;;;;15.25;51.97;100677.72;4127345;28;20228;-35
2022/10/27 07:53:16;;;;;;;15.60;5.90;;;;;;;14.92;53.03;100697.13;4140627;28;20507;-37
2022/10/27 07:55:20;;;;;;;13.50;5.63;;;;;;;14.91;53.22;100663.09;4134094;28;20290;-38
2022/10/27 07:57:21;;;;;;;15.17;5.83;;;;;;;14.98;52.85;100672.09;4144914;28;20323;-38
2022/10/27 07:59:23;;;;;;;17.83;7.23;;;;;;;15.27;52.62;100652.25;4146830;28;20342;-35
2022/10/27 08:01:25;;;;;;;26.13;6.27;;;;;;;14.88;52.65;100674.25;4146522;28;20663;-36
2022/10/27 08:03:29;;;;;;;17.10;6.20;;;;;;;15.32;52.16;100646.28;4150455;28;20524;-38
2022/10/27 08:05:35;;;;;;;13.33;5.27;;;;;;;14.63;53.68;100690.75;4127542;28;20652;-38
2022/10/27 08:07:37;;;;;;;13.50;5.77;;;;;;;15.35;52.72;100645.88;4141159;28;20207;-38
2022/10/27 08:09:40;;;;;;;9.77;5.37;;;;;;;16.13;50.73;100623.34;4175339;28;20290;-38
2022/10/27 08:11:42;;;;;;;12.57;6.10;;;;;;;16.28;50.31;100632.19;4171929;28;20314;-40
2022/10/27 08:13:43;;;;;;;6.37;5.47;;;;;;;16.33;50.32;100629.72;4146545;28;20266;-37
2022/10/27 08:15:46;;;;;;;24.87;5.83;;;;;;;15.29;52.21;100700.59;4153351;28;20684;-37
2022/10/27 08:17:56;;;;;;;21.33;6.07;;;;;;;16.00;51.15;100643.03;4142960;28;20244;-37
2022/10/27 08:19:58;;;;;;;58.63;8.37;;;;;;;14.59;53.78;100719.09;4152404;28;20669;-36
2022/10/27 08:22:00;;;;;;;27.10;7.53;;;;;;;14.04;55.34;100716.69;4126721;28;20256;-36
2022/10/27 08:24:01;;;;;;;37.67;8.97;;;;;;;14.47;54.61;100680.22;4142305;28;20339;-38
2022/10/27 08:26:03;;;;;;;82.13;10.73;;;;;;;14.19;55.25;100681.72;4133257;28;20768;-40
2022/10/27 08:28:05;;;;;;;49.30;9.20;;;;;;;14.16;54.93;100687.47;4142790;28;20252;-37
2022/10/27 08:30:08;;;;;;;50.13;10.10;;;;;;;14.52;54.77;100665.13;4147236;28;20323;-37
2022/10/27 08:32:09;;;;;;;22.07;7.93;;;;;;;15.30;53.45;100627.59;4174624;28;20247;-38
2022/10/27 08:34:11;;;;;;;81.37;10.00;;;;;;;14.13;55.22;100703.16;4149867;28;20816;-40
2022/10/27 08:36:14;;;;;;;20.13;8.63;;;;;;;15.82;52.73;100616.56;4152721;28;20426;-36
2022/10/27 08:38:17;;;;;;;28.30;8.50;;;;;;;15.99;52.55;100622.44;4134753;28;20442;-35
2022/10/27 08:40:18;;;;;;;23.80;8.67;;;;;;;16.04;51.42;100628.94;4141839;28;20319;-35
2022/10/27 08:42:32;;;;;;;51.10;9.47;;;;;;;13.97;54.86;100713.06;4143440;28;20239;-38
2022/10/27 08:44:40;;;;;;;46.97;9.30;;;;;;;13.93;55.92;100717.13;4140720;28;20245;-37
2022/10/27 08:46:51;;;;;;;45.83;9.40;;;;;;;14.58;54.94;100671.66;4139248;28;20235;-38
2022/10/27 08:49:01;;;;;;;39.97;9.70;;;;;;;14.26;55.50;100678.28;4126893;28;20295;-37
2022/10/27 08:51:08;;;;;;;49.13;10.30;;;;;;;13.87;56.11;100696.34;4144543;28;20236;-35
2022/10/27 08:53:14;;;;;;;73.27;12.97;;;;;;;13.71;56.83;100693.81;4144844;28;20319;-36
2022/10/27 08:55:23;;;;;;;33.50;10.93;;;;;;;15.02;54.93;100614.09;4149563;28;20324;-36
2022/10/27 08:57:29;;;;;;;21.63;10.17;;;;;;;15.49;53.27;100625.25;4127541;28;20224;-36
2022/10/27 08:59:33;;;;;;;43.90;15.57;;;;;;;14.73;54.82;100667.03;4162946;28;20720;-37
2022/10/27 09:01:55;;;;;;;36.43;13.47;;;;;;;14.88;54.79;100668.88;4169296;28;20239;-35
2022/10/27 09:04:02;;;;;;;17.57;11.30;;;;;;;16.65;52.06;100596.72;4164239;28;20241;-36
2022/10/27 09:06:15;;;;;;;20.33;9.47;;;;;;;15.91;53.22;100641.50;4161128;28;20227;-37
2022/10/27 09:08:38;;;;;;;10.70;8.47;;;;;;;17.43;50.59;100621.34;4131622;28;20232;-39
2022/10/27 09:10:46;;;;;;;15.20;8.53;;;;;;;15.01;54.23;100712.13;4167228;28;20231;-40
2022/10/27 09:13:00;;;;;;;19.63;8.17;;;;;;;16.46;51.86;100633.47;4146670;28;20258;-37
2022/10/27 09:15:23;;;;;;;8.60;7.10;;;;;;;16.51;51.97;100645.31;4124854;28;20707;-39
2022/10/27 09:17:49;;;;;;;8.83;7.20;;;;;;;17.64;49.88;100614.88;4131055;28;20232;-37
2022/10/27 09:19:55;;;;;;;8.37;6.87;;;;;;;16.68;51.82;100647.66;4139020;28;20235;-35
2022/10/27 09:22:01;;;;;;;8.67;7.53;;;;;;;15.92;53.22;100680.97;4154691;28;20338;-39
2022/10/27 09:24:11;;;;;;;9.20;7.03;;;;;;;15.02;55.47;100705.72;4136289;28;20805;-38
2022/10/27 09:26:15;;;;;;;9.50;7.60;;;;;;;16.29;53.94;100612.22;4143537;28;20242;-36
2022/10/27 09:28:42;;;;;;;10.10;7.23;;;;;;;16.57;52.84;100625.63;4147984;28;20236;-35
2022/10/27 09:30:48;;;;;;;10.30;8.00;;;;;;;17.46;51.38;100609.25;4134545;28;20654;-39
2022/10/27 09:32:52;;;;;;;10.13;8.40;;;;;;;16.56;52.95;100655.53;4139856;28;20232;-36
2022/10/27 09:35:04;;;;;;;8.60;7.43;;;;;;;17.65;51.31;100607.59;4144816;28;20224;-40
2022/10/27 09:37:14;;;;;;;10.67;8.67;;;;;;;16.52;53.68;100647.00;4135735;28;20775;-37